createdAt,value
2022-08-01T00:00:09.933Z,46.90
2022-08-01T00:02:41.263Z,47.00
2022-08-01T00:05:09.792Z,47.20
2022-08-01T00:07:36.868Z,47.10
2022-08-01T00:10:09.604Z,47.10
2022-08-01T00:12:36.676Z,47.50
2022-08-01T00:15:05.096Z,47.30
2022-08-01T00:17:32.022Z,47.30
2022-08-01T00:19:59.058Z,47.30
2022-08-01T00:22:26.470Z,47.40
2022-08-01T00:24:53.265Z,47.50
2022-08-01T00:27:19.962Z,47.50
2022-08-01T00:30:11.523Z,47.60
2022-08-01T00:32:34.620Z,47.60
2022-08-01T00:35:01.677Z,47.50
2022-08-01T00:37:28.354Z,47.90
2022-08-01T00:39:55.382Z,47.70
2022-08-01T00:42:22.145Z,47.70
2022-08-01T00:44:49.981Z,47.80
2022-08-01T00:47:16.894Z,47.80
2022-08-01T00:49:43.912Z,47.80
2022-08-01T00:52:11.517Z,47.90
2022-08-01T00:54:38.825Z,47.90
2022-08-01T00:57:10.207Z,47.90
2022-08-01T00:59:39.978Z,48.00
2022-08-01T01:02:14.820Z,48.10
2022-08-01T01:04:43.655Z,48.10
2022-08-01T01:07:30.252Z,48.10
2022-08-01T01:10:05.792Z,48.70
2022-08-01T01:12:53.124Z,48.40
2022-08-01T01:15:37.689Z,48.70
2022-08-01T01:18:10.455Z,48.80
2022-08-01T01:20:40.610Z,48.40
2022-08-01T01:23:36.771Z,48.50
2022-08-01T01:26:36.562Z,49.00
2022-08-01T01:29:27.939Z,49.60
2022-08-01T01:32:30.758Z,49.10
2022-08-01T01:34:59.034Z,49.20
2022-08-01T01:37:28.236Z,48.60
2022-08-01T01:39:56.169Z,48.80
2022-08-01T01:42:26.663Z,48.70
2022-08-01T01:44:55.442Z,48.80
2022-08-01T01:47:24.167Z,48.80
2022-08-01T01:49:53.462Z,48.80
2022-08-01T01:52:21.149Z,48.80
2022-08-01T01:54:53.434Z,48.80
2022-08-01T01:57:21.906Z,49.00
2022-08-01T01:59:50.805Z,48.90
2022-08-01T02:02:19.778Z,49.00
2022-08-01T02:04:48.216Z,48.90
2022-08-01T02:07:20.013Z,48.90
2022-08-01T02:09:48.018Z,49.00
2022-08-01T02:12:17.629Z,48.90
2022-08-01T02:14:46.953Z,49.20
2022-08-01T02:17:18.277Z,49.10
2022-08-01T02:19:45.622Z,49.40
2022-08-01T02:22:21.213Z,49.40
2022-08-01T02:24:57.430Z,49.60
2022-08-01T02:27:32.841Z,49.70
2022-08-01T02:30:03.675Z,49.80
2022-08-01T02:32:40.857Z,49.70
2022-08-01T02:35:14.516Z,50.10
2022-08-01T02:37:44.468Z,49.90
2022-08-01T02:40:17.285Z,50.00
2022-08-01T02:46:02.181Z,50.40
2022-08-01T02:48:31.079Z,50.00
2022-08-01T02:51:01.305Z,50.00
2022-08-01T02:53:44.047Z,50.20
2022-08-01T02:56:14.486Z,50.10
2022-08-01T02:58:42.668Z,50.10
2022-08-01T03:01:10.935Z,50.20
2022-08-01T03:03:39.521Z,50.20
2022-08-01T03:06:07.460Z,50.30
2022-08-01T03:08:35.582Z,50.50
2022-08-01T03:11:03.231Z,50.50
2022-08-01T03:13:32.020Z,50.50
2022-08-01T03:16:01.274Z,50.60
2022-08-01T03:18:29.819Z,50.60
2022-08-01T03:20:58.371Z,50.60
2022-08-01T03:23:29.176Z,50.80
2022-08-01T03:26:06.724Z,50.80
2022-08-01T03:28:33.689Z,50.80
2022-08-01T03:31:02.998Z,50.80
2022-08-01T03:33:30.389Z,50.90
2022-08-01T03:36:00.775Z,51.00
2022-08-01T03:38:32.005Z,51.00
2022-08-01T03:41:07.174Z,51.10
2022-08-01T03:43:38.108Z,51.40
2022-08-01T03:46:09.154Z,51.20
2022-08-01T03:48:40.511Z,51.30
2022-08-01T03:51:09.736Z,51.30
2022-08-01T03:53:40.786Z,51.40
2022-08-01T03:56:11.189Z,51.40
2022-08-01T03:58:40.698Z,51.40
2022-08-01T04:01:15.538Z,51.60
2022-08-01T04:03:44.817Z,51.50
2022-08-01T04:06:11.869Z,51.60
2022-08-01T04:08:39.997Z,51.60
2022-08-01T04:11:08.686Z,51.70
2022-08-01T04:13:37.110Z,51.90
2022-08-01T04:16:04.818Z,51.80
2022-08-01T04:18:31.565Z,51.80
2022-08-01T04:20:58.924Z,51.80
2022-08-01T04:23:28.587Z,51.90
2022-08-01T04:25:58.279Z,52.10
2022-08-01T04:28:26.250Z,52.10
2022-08-01T04:31:01.549Z,52.00
2022-08-01T04:33:31.867Z,52.30
2022-08-01T04:36:04.789Z,52.20
2022-08-01T04:38:35.069Z,52.20
2022-08-01T04:41:09.100Z,52.20
2022-08-01T04:43:44.174Z,52.20
2022-08-01T04:46:12.592Z,52.30
2022-08-01T04:48:40.745Z,52.50
2022-08-01T04:51:18.626Z,52.40
2022-08-01T04:53:49.234Z,52.60
2022-08-01T04:56:16.017Z,52.40
2022-08-01T04:58:43.189Z,52.50
2022-08-01T05:01:11.659Z,52.60
2022-08-01T05:03:39.276Z,52.60
2022-08-01T05:06:06.570Z,52.60
2022-08-01T05:08:33.616Z,52.70
2022-08-01T05:11:00.361Z,52.70
2022-08-01T05:13:27.225Z,52.80
2022-08-01T05:15:53.913Z,52.70
2022-08-01T05:18:27.878Z,52.80
2022-08-01T05:20:55.584Z,52.80
2022-08-01T05:23:42.540Z,52.80
2022-08-01T05:26:09.787Z,52.90
2022-08-01T05:28:36.989Z,52.90
2022-08-01T05:31:04.671Z,52.90
2022-08-01T05:33:31.773Z,53.00
2022-08-01T05:35:58.445Z,53.00
2022-08-01T05:38:25.491Z,53.10
2022-08-01T05:40:52.333Z,53.10
2022-08-01T05:43:19.107Z,53.10
2022-08-01T05:45:46.912Z,53.10
2022-08-01T05:48:13.820Z,53.20
2022-08-01T05:50:41.414Z,53.10
2022-08-01T05:53:08.193Z,53.20
2022-08-01T05:55:36.190Z,53.20
2022-08-01T05:58:03.613Z,53.20
2022-08-01T06:00:30.294Z,53.20
2022-08-01T06:02:57.190Z,53.20
2022-08-01T06:05:24.034Z,53.10
2022-08-01T06:07:51.058Z,53.20
2022-08-01T06:10:17.908Z,53.20
2022-08-01T06:12:44.685Z,53.30
2022-08-01T06:15:12.503Z,53.20
2022-08-01T06:17:40.527Z,53.30
2022-08-01T06:20:08.297Z,53.20
2022-08-01T06:22:35.105Z,53.20
2022-08-01T06:25:02.121Z,53.30
2022-08-01T06:27:28.877Z,53.20
2022-08-01T06:29:55.883Z,53.20
2022-08-01T06:32:27.980Z,53.30
2022-08-01T06:34:56.728Z,53.50
2022-08-01T06:37:24.378Z,53.40
2022-08-01T06:39:51.359Z,53.30
2022-08-01T06:42:18.487Z,53.00
2022-08-01T06:44:45.727Z,52.90
2022-08-01T06:47:12.616Z,52.80
2022-08-01T06:49:39.606Z,52.80
2022-08-01T06:52:06.516Z,52.80
2022-08-01T06:54:33.402Z,52.80
2022-08-01T06:57:00.607Z,52.80
2022-08-01T06:59:27.578Z,52.70
2022-08-01T07:02:16.849Z,52.70
2022-08-01T07:04:43.982Z,52.70
2022-08-01T07:07:10.681Z,52.70
2022-08-01T07:09:37.917Z,52.70
2022-08-01T07:12:05.453Z,52.50
2022-08-01T07:14:32.400Z,52.40
2022-08-01T07:16:59.103Z,52.40
2022-08-01T07:19:26.402Z,52.40
2022-08-01T07:21:53.099Z,52.30
2022-08-01T07:24:21.394Z,52.20
2022-08-01T07:26:52.614Z,52.10
2022-08-01T07:29:25.537Z,52.10
2022-08-01T07:31:54.305Z,52.00
2022-08-01T07:34:21.901Z,52.00
2022-08-01T07:36:48.764Z,52.00
2022-08-01T07:39:15.688Z,52.10
2022-08-01T07:42:04.786Z,52.10
2022-08-01T07:44:29.344Z,51.90
2022-08-01T07:46:56.273Z,52.00
2022-08-01T07:49:23.312Z,52.10
2022-08-01T07:52:04.148Z,52.20
2022-08-01T07:54:34.096Z,52.30
2022-08-01T07:57:02.785Z,52.30
2022-08-01T07:59:30.096Z,52.40
2022-08-01T08:01:57.567Z,52.30
2022-08-01T08:04:24.337Z,52.10
2022-08-01T08:06:51.828Z,51.80
2022-08-01T08:09:18.705Z,51.70
2022-08-01T08:11:48.061Z,51.70
2022-08-01T08:14:16.375Z,51.70
2022-08-01T08:16:44.030Z,51.60
2022-08-01T08:19:11.268Z,51.60
2022-08-01T08:21:38.934Z,51.50
2022-08-01T08:24:26.562Z,51.30
2022-08-01T08:26:59.154Z,51.10
2022-08-01T08:29:27.425Z,50.80
2022-08-01T08:31:56.937Z,50.80
2022-08-01T08:34:31.067Z,50.60
2022-08-01T08:36:59.182Z,50.30
2022-08-01T08:39:26.601Z,50.10
2022-08-01T08:41:53.575Z,50.20
2022-08-01T08:44:23.407Z,50.20
2022-08-01T08:46:53.402Z,50.10
2022-08-01T08:49:23.302Z,50.00
2022-08-01T08:51:52.312Z,49.80
2022-08-01T08:54:22.938Z,49.80
2022-08-01T08:56:59.734Z,50.00
2022-08-01T08:59:27.042Z,50.10
2022-08-01T09:01:53.753Z,49.80
2022-08-01T09:04:25.959Z,49.20
2022-08-01T09:06:54.295Z,48.40
2022-08-01T09:09:21.167Z,48.10
2022-08-01T09:11:57.719Z,47.70
2022-08-01T09:14:27.237Z,47.00
2022-08-01T09:17:07.475Z,47.00
2022-08-01T09:19:43.506Z,47.70
2022-08-01T09:22:13.104Z,48.50
2022-08-01T09:24:41.891Z,48.80
2022-08-01T09:27:21.970Z,49.10
2022-08-01T09:30:00.662Z,48.50
2022-08-01T09:32:36.046Z,49.50
2022-08-01T09:35:30.046Z,49.30
2022-08-01T09:38:30.780Z,48.60
2022-08-01T09:40:59.617Z,48.20
2022-08-01T09:43:28.800Z,48.80
2022-08-01T09:45:58.339Z,46.90
2022-08-01T09:48:28.672Z,46.00
2022-08-01T09:51:04.580Z,44.80
2022-08-01T09:53:51.124Z,44.80
2022-08-01T09:56:19.745Z,43.30
2022-08-01T09:58:59.545Z,44.60
2022-08-01T10:01:36.682Z,43.30
2022-08-01T10:04:22.341Z,42.60
2022-08-01T10:06:53.473Z,41.30
2022-08-01T10:09:39.897Z,40.80
2022-08-01T10:12:15.508Z,40.00
2022-08-01T10:14:50.146Z,40.00
2022-08-01T10:17:19.648Z,39.60
2022-08-01T10:19:47.961Z,40.50
2022-08-01T10:22:18.546Z,41.10
2022-08-01T10:24:48.105Z,41.20
2022-08-01T10:27:21.569Z,40.60
2022-08-01T10:30:15.484Z,39.80
2022-08-01T10:32:53.007Z,39.90
2022-08-01T10:35:46.051Z,40.10
2022-08-01T10:38:13.460Z,40.90
2022-08-01T10:40:42.665Z,41.60
2022-08-01T10:43:11.789Z,41.20
2022-08-01T10:45:40.108Z,40.90
2022-08-01T10:48:10.716Z,40.60
2022-08-01T10:50:42.641Z,40.10
2022-08-01T10:53:15.940Z,39.70
2022-08-01T10:55:59.267Z,39.70
2022-08-01T10:58:42.619Z,38.20
2022-08-01T11:01:33.137Z,38.50
2022-08-01T11:04:17.923Z,36.90
2022-08-01T11:06:54.746Z,36.20
2022-08-01T11:09:37.314Z,35.60
2022-08-01T11:12:23.200Z,35.80
2022-08-01T11:14:59.866Z,35.90
2022-08-01T11:17:41.855Z,36.20
2022-08-01T11:20:13.089Z,35.80
2022-08-01T11:23:03.426Z,36.20
2022-08-01T11:26:03.493Z,35.40
2022-08-01T11:28:35.756Z,35.70
2022-08-01T11:31:13.684Z,36.40
2022-08-01T11:33:45.805Z,37.10
2022-08-01T11:36:14.372Z,37.50
2022-08-01T11:38:48.004Z,37.80
2022-08-01T11:41:37.665Z,37.80
2022-08-01T11:44:07.382Z,37.70
2022-08-01T11:46:52.764Z,37.40
2022-08-01T11:49:49.642Z,37.10
2022-08-01T11:52:24.493Z,35.90
2022-08-01T11:54:53.711Z,37.20
2022-08-01T11:57:34.622Z,36.60
2022-08-01T12:00:19.423Z,36.00
2022-08-01T12:02:47.949Z,34.90
2022-08-01T12:05:19.025Z,35.90
2022-08-01T12:07:50.048Z,35.60
2022-08-01T12:10:19.992Z,35.40
2022-08-01T12:12:49.757Z,34.60
2022-08-01T12:15:17.451Z,34.50
2022-08-01T12:17:58.122Z,34.30
2022-08-01T12:20:40.118Z,33.80
2022-08-01T12:23:10.180Z,33.10
2022-08-01T12:25:38.020Z,33.60
2022-08-01T12:28:06.805Z,33.80
2022-08-01T12:30:36.355Z,33.40
2022-08-01T12:33:06.151Z,33.10
2022-08-01T12:35:33.685Z,32.80
2022-08-01T12:38:04.942Z,32.50
2022-08-01T12:40:40.854Z,32.30
2022-08-01T12:43:15.920Z,32.70
2022-08-01T12:45:58.371Z,33.10
2022-08-01T12:48:26.322Z,33.50
2022-08-01T12:50:54.367Z,33.70
2022-08-01T12:53:22.368Z,33.80
2022-08-01T12:55:58.092Z,33.50
2022-08-01T12:58:34.383Z,33.20
2022-08-01T13:01:11.523Z,33.10
2022-08-01T13:03:39.275Z,33.00
2022-08-01T13:06:15.231Z,33.10
2022-08-01T13:08:42.057Z,32.90
2022-08-01T13:11:14.684Z,32.90
2022-08-01T13:13:48.530Z,32.90
2022-08-01T13:16:31.192Z,33.00
2022-08-01T13:19:06.683Z,33.20
2022-08-01T13:21:34.469Z,33.20
2022-08-01T13:24:38.752Z,33.30
2022-08-01T13:27:05.647Z,33.60
2022-08-01T13:29:42.256Z,33.70
2022-08-01T13:32:28.917Z,34.10
2022-08-01T13:35:11.382Z,34.40
2022-08-01T13:37:42.701Z,34.40
2022-08-01T13:40:11.259Z,34.40
2022-08-01T13:42:38.981Z,34.30
2022-08-01T13:45:14.552Z,34.40
2022-08-01T13:48:12.524Z,34.60
2022-08-01T13:50:32.522Z,34.50
2022-08-01T13:52:59.343Z,34.60
2022-08-01T13:55:27.921Z,34.30
2022-08-01T13:57:57.053Z,33.90
2022-08-01T14:00:24.047Z,33.30
2022-08-01T14:02:50.919Z,32.90
2022-08-01T14:05:17.738Z,32.80
2022-08-01T14:07:45.564Z,32.60
2022-08-01T14:10:19.802Z,32.50
2022-08-01T14:12:48.691Z,32.50
2022-08-01T14:15:38.597Z,32.60
2022-08-01T14:18:02.577Z,32.60
2022-08-01T14:20:29.319Z,32.90
2022-08-01T14:22:56.286Z,32.90
2022-08-01T14:25:58.209Z,33.10
2022-08-01T14:28:10.129Z,33.10
2022-08-01T14:30:37.331Z,33.30
2022-08-01T14:33:04.285Z,33.50
2022-08-01T14:35:31.077Z,33.50
2022-08-01T14:38:21.924Z,33.50
2022-08-01T14:40:59.266Z,33.70
2022-08-01T14:43:32.302Z,33.70
2022-08-01T14:46:01.076Z,33.50
2022-08-01T14:48:27.945Z,33.30
2022-08-01T14:50:54.733Z,33.30
2022-08-01T14:53:21.605Z,33.40
2022-08-01T14:55:48.575Z,33.40
2022-08-01T14:58:15.429Z,33.40
2022-08-01T15:00:43.057Z,33.60
2022-08-01T15:03:09.762Z,33.60
2022-08-01T15:05:37.221Z,33.80
2022-08-01T15:08:06.150Z,34.10
2022-08-01T15:10:33.174Z,34.30
2022-08-01T15:13:01.014Z,34.80
2022-08-01T15:15:28.454Z,34.40
2022-08-01T15:17:55.596Z,34.60
2022-08-01T15:20:22.714Z,34.60
2022-08-01T15:22:49.534Z,34.50
2022-08-01T15:25:16.383Z,34.60
2022-08-01T15:27:43.456Z,34.60
2022-08-01T15:30:10.441Z,34.90
2022-08-01T15:32:37.857Z,34.90
2022-08-01T15:35:05.802Z,34.80
2022-08-01T15:37:32.741Z,34.80
2022-08-01T15:39:59.625Z,34.90
2022-08-01T15:42:27.000Z,34.90
2022-08-01T15:44:54.458Z,35.00
2022-08-01T15:47:22.629Z,35.00
2022-08-01T15:49:52.761Z,34.90
2022-08-01T15:52:21.284Z,34.90
2022-08-01T15:54:50.033Z,35.00
2022-08-01T15:57:17.016Z,35.00
2022-08-01T15:59:44.060Z,34.90
2022-08-01T16:02:11.385Z,34.80
2022-08-01T16:04:38.777Z,34.80
2022-08-01T16:07:06.269Z,34.60
2022-08-01T16:09:33.057Z,34.50
2022-08-01T16:11:59.822Z,34.50
2022-08-01T16:14:26.825Z,34.40
2022-08-01T16:16:56.282Z,34.40
2022-08-01T16:19:24.117Z,34.30
2022-08-01T16:21:52.258Z,34.30
2022-08-01T16:24:19.041Z,34.30
2022-08-01T16:26:45.780Z,34.20
2022-08-01T16:29:12.692Z,34.20
2022-08-01T16:31:59.347Z,34.30
2022-08-01T16:34:26.462Z,34.30
2022-08-01T16:36:55.279Z,34.40
2022-08-01T16:39:23.479Z,34.60
2022-08-01T16:41:55.250Z,34.70
2022-08-01T16:44:33.393Z,34.60
2022-08-01T16:47:02.536Z,34.60
2022-08-01T16:49:29.494Z,34.70
2022-08-01T16:51:56.343Z,34.70
2022-08-01T16:54:25.934Z,34.70
2022-08-01T16:56:54.123Z,34.80
2022-08-01T16:59:20.781Z,34.80
2022-08-01T17:02:00.075Z,34.80
2022-08-01T17:04:30.119Z,34.80
2022-08-01T17:06:58.466Z,34.90
2022-08-01T17:09:25.405Z,35.00
2022-08-01T17:11:52.229Z,35.00
2022-08-01T17:14:19.888Z,35.10
2022-08-01T17:16:46.757Z,35.20
2022-08-01T17:19:14.778Z,35.20
2022-08-01T17:21:42.224Z,35.20
2022-08-01T17:24:10.102Z,35.30
2022-08-01T17:26:38.494Z,35.30
2022-08-01T17:29:05.203Z,35.30
2022-08-01T17:31:32.171Z,35.40
2022-08-01T17:33:59.113Z,35.40
2022-08-01T17:36:25.953Z,35.60
2022-08-01T17:38:52.680Z,35.50
2022-08-01T17:41:19.966Z,35.60
2022-08-01T17:43:46.845Z,35.70
2022-08-01T17:46:13.928Z,35.80
2022-08-01T17:48:40.721Z,35.90
2022-08-01T17:51:07.769Z,35.80
2022-08-01T17:53:34.698Z,35.90
2022-08-01T17:56:05.492Z,35.90
2022-08-01T17:58:49.770Z,36.00
2022-08-01T18:01:20.542Z,36.10
2022-08-01T18:03:48.050Z,36.10
2022-08-01T18:06:19.702Z,36.10
2022-08-01T18:08:50.160Z,36.20
2022-08-01T18:11:20.089Z,36.20
2022-08-01T18:13:47.966Z,36.30
2022-08-01T18:16:16.267Z,36.40
2022-08-01T18:18:43.872Z,36.50
2022-08-01T18:21:12.161Z,36.50
2022-08-01T18:23:39.110Z,36.60
2022-08-01T18:26:08.568Z,36.70
2022-08-01T18:28:41.936Z,36.90
2022-08-01T18:31:20.161Z,36.90
2022-08-01T18:33:47.660Z,37.00
2022-08-01T18:36:25.498Z,37.10
2022-08-01T18:39:04.462Z,37.10
2022-08-01T18:41:33.188Z,37.40
2022-08-01T18:44:05.378Z,37.60
2022-08-01T18:46:39.439Z,37.60
2022-08-01T18:49:07.672Z,37.70
2022-08-01T18:51:36.179Z,37.70
2022-08-01T18:54:04.674Z,37.90
2022-08-01T18:56:31.582Z,37.90
2022-08-01T18:58:58.272Z,38.00
2022-08-01T19:01:25.054Z,38.10
2022-08-01T19:03:51.866Z,38.20
2022-08-01T19:06:18.568Z,38.20
2022-08-01T19:08:46.099Z,38.30
2022-08-01T19:11:13.085Z,38.40
2022-08-01T19:13:40.469Z,38.50
2022-08-01T19:16:07.259Z,38.60
2022-08-01T19:18:34.102Z,38.60
2022-08-01T19:21:06.846Z,38.80
2022-08-01T19:23:52.875Z,38.80
2022-08-01T19:26:23.687Z,39.00
2022-08-01T19:28:53.434Z,39.20
2022-08-01T19:31:24.325Z,39.20
2022-08-01T19:33:52.554Z,39.30
2022-08-01T19:36:20.565Z,39.30
2022-08-01T19:38:48.018Z,39.40
2022-08-01T19:41:19.024Z,39.40
2022-08-01T19:43:47.112Z,39.60
2022-08-01T19:46:17.550Z,39.70
2022-08-01T19:48:48.661Z,39.80
2022-08-01T19:51:22.007Z,39.90
2022-08-01T19:53:55.522Z,40.00
2022-08-01T19:56:25.780Z,40.10
2022-08-01T19:58:59.458Z,40.10
2022-08-01T20:01:27.902Z,40.20
2022-08-01T20:03:55.934Z,40.20
2022-08-01T20:06:24.596Z,40.30
2022-08-01T20:08:54.901Z,40.50
2022-08-01T20:11:23.321Z,40.60
2022-08-01T20:13:51.229Z,40.50
2022-08-01T20:16:18.334Z,40.60
2022-08-01T20:18:45.376Z,40.70
2022-08-01T20:21:13.225Z,40.80
2022-08-01T20:23:42.845Z,40.90
2022-08-01T20:26:09.935Z,40.90
2022-08-01T20:28:41.697Z,40.90
2022-08-01T20:31:10.342Z,41.10
2022-08-01T20:33:43.050Z,41.10
2022-08-01T20:36:12.402Z,41.40
2022-08-01T20:38:54.785Z,41.40
2022-08-01T20:41:25.823Z,41.40
2022-08-01T20:43:55.665Z,41.60
2022-08-01T20:46:25.273Z,41.60
2022-08-01T20:48:57.447Z,41.70
2022-08-01T20:51:28.591Z,41.90
2022-08-01T20:53:56.053Z,42.00
2022-08-01T20:56:39.244Z,41.90
2022-08-01T20:59:55.661Z,42.30
2022-08-01T21:02:16.633Z,42.20
2022-08-01T21:04:53.140Z,42.10
2022-08-01T21:07:28.907Z,42.40
2022-08-01T21:10:16.303Z,42.60
2022-08-01T21:12:54.271Z,42.80
2022-08-01T21:16:12.592Z,42.70
2022-08-01T21:19:16.873Z,43.00
2022-08-01T21:21:44.001Z,42.70
2022-08-01T21:24:17.794Z,42.70
2022-08-01T21:26:46.545Z,43.00
2022-08-01T21:29:14.137Z,42.80
2022-08-01T21:31:42.261Z,42.90
2022-08-01T21:34:09.323Z,43.10
2022-08-01T21:36:36.713Z,43.10
2022-08-01T21:39:06.934Z,43.20
2022-08-01T21:42:04.953Z,43.40
2022-08-01T21:44:28.856Z,43.40
2022-08-01T21:47:00.392Z,43.50
2022-08-01T21:49:27.740Z,43.70
2022-08-01T21:51:59.749Z,43.60
2022-08-01T21:54:39.035Z,43.80
2022-08-01T21:57:25.593Z,44.20
2022-08-01T22:00:11.869Z,44.20
2022-08-01T22:03:11.965Z,44.20
2022-08-01T22:05:50.122Z,44.10
2022-08-01T22:08:54.172Z,44.00
2022-08-01T22:11:24.998Z,44.70
2022-08-01T22:13:59.956Z,44.10
2022-08-01T22:16:27.408Z,44.50
2022-08-01T22:18:54.580Z,44.30
2022-08-01T22:21:21.493Z,44.40
2022-08-01T22:23:51.716Z,44.50
2022-08-01T22:26:22.081Z,44.60
2022-08-01T22:28:53.105Z,44.60
2022-08-01T22:31:22.155Z,44.80
2022-08-01T22:33:49.180Z,44.90
2022-08-01T22:36:16.774Z,45.30
2022-08-01T22:38:43.619Z,45.00
2022-08-01T22:41:15.995Z,45.00
2022-08-01T22:44:08.340Z,45.30
2022-08-01T22:46:39.403Z,45.40
2022-08-01T22:49:15.159Z,45.20
2022-08-01T22:51:54.828Z,45.60
2022-08-01T22:54:32.086Z,45.40
2022-08-01T22:57:01.392Z,45.40
2022-08-01T22:59:57.576Z,45.50
2022-08-01T23:02:26.355Z,45.70
2022-08-01T23:05:01.303Z,45.50
2022-08-01T23:07:33.584Z,45.80
2022-08-01T23:10:05.058Z,45.90
2022-08-01T23:12:32.503Z,45.90
2022-08-01T23:15:00.700Z,45.90
2022-08-01T23:17:30.076Z,46.00
2022-08-01T23:20:02.422Z,46.10
2022-08-01T23:22:32.638Z,46.30
2022-08-01T23:25:03.746Z,46.20
2022-08-01T23:28:03.847Z,46.20
2022-08-01T23:30:30.510Z,46.40
2022-08-01T23:32:58.292Z,46.30
2022-08-01T23:35:25.479Z,46.30
2022-08-01T23:37:52.790Z,46.40
2022-08-01T23:40:19.817Z,46.40
2022-08-01T23:42:47.610Z,46.50
2022-08-01T23:45:14.498Z,46.60
2022-08-01T23:47:41.680Z,46.60
2022-08-01T23:50:08.999Z,46.70
2022-08-01T23:52:42.560Z,46.70
2022-08-01T23:55:16.476Z,46.80
2022-08-01T23:57:43.658Z,46.80
